Kirkville, IA

16:46 CDT le 25 avril 2015 (GMT -0500)
Ottumwa Industrial | | Change Station
CLOSE
Current Station
Aéroport
Location: Ottumwa,
Altitude: 843 ft
Stations météo à proximité

Alt. 843 ft 41.11 °N, 92.45 °W | Updated 7 minutes ago

Couvert
Couvert
48 ° F
Paraît 48 ° F
N
16
Vent Variable Vent de NE

Aujourd'hui
Haut(e) -- | Bas -- ° F
--% Risque de précip.
Hier
Haut(e) -- | Bas -- ° F
Precip. -- pouce
6:16 AM 8:00 PM
Lune montante, 49% visible
Pression 29.69 pouce
Visibilité 2.5 Miles terrestres
Nuages Couvert 700 ft
Point de rosée 46 ° F
Humidité 93%
Précipitations 0.56 pouce
Profondeur de la couche neigeuse Non disponible.
UV 1 sur 12
Pollen 4.70 sur 12
Qualité de l'air Non disponible.
Flu Activity Local Activity
SPECI KOTM 252139Z AUTO 05014KT 2 1/2SM BR OVC007 09/08 A2969 RMK AO2 CIG 005V009 T00890078

More Conditions Fewer Conditions

Pression 29.69 pouce
Visibilité 2.5 Miles terrestres
Nuages Couvert 700 ft
Point de rosée 46 ° F
Humidité 93%
Précipitations 0.56 pouce
Profondeur de la couche neigeuse Non disponible.
UV 1 sur 12
Pollen 4.70 sur 12
Qualité de l'air Non disponible.
Flu Activity Local Activity
SPECI KOTM 252139Z AUTO 05014KT 2 1/2SM BR OVC007 09/08 A2969 RMK AO2 CIG 005V009 T00890078

More Conditions Fewer Conditions

10-Day Weather Forecast

Almanac

Astronomie

Apr. 25, 2015 Lever Coucher
Temps réel
Crépuscule civil
Crépuscule nautique
Crépuscule astronomique
Lune
Durée de lumière visible
Longueur du jour
Tomorrow will be .
, % of the Moon is Illuminated

Extrêmes aujourd'hui

State Highs State Lows

Community

WunderPhotos

Upload Photos

1,816,820 Photos téléchargées !

WunderBlogs® & News

Nearby

Qualité de l'air

  Qualité de l'air Indice de la qualité de l'air Polluant
Not available.

Épaisseur de neige

Station Depth Altitude

Activité sismique

Ville Distance Mag. Time & Date
Minimum magnitude displayed is 2.5.

Températures des eaux côtières

Lieu Température

Stations

Stations météo à proximité

Emplacement de la station Température Refroidissement éolien Point de rosée Humidité Vent Precip. Alt. Mise à jour Type